sensor_id;sensor_type;location;lat;lon;timestamp;P1;durP1;ratioP1;P2;durP2;ratioP2
18425;SDS011;9340;48.756;9.226;2023-05-29T00:01:35;8.90;;;6.00;;
18425;SDS011;9340;48.756;9.226;2023-05-29T00:04:04;7.40;;;5.33;;
18425;SDS011;9340;48.756;9.226;2023-05-29T00:06:30;7.17;;;5.53;;
18425;SDS011;9340;48.756;9.226;2023-05-29T00:08:57;7.23;;;6.20;;
18425;SDS011;9340;48.756;9.226;2023-05-29T00:11:24;7.93;;;6.20;;
18425;SDS011;9340;48.756;9.226;2023-05-29T00:13:50;6.50;;;5.90;;
18425;SDS011;9340;48.756;9.226;2023-05-29T00:16:17;7.67;;;6.30;;
18425;SDS011;9340;48.756;9.226;2023-05-29T00:18:44;7.07;;;6.33;;
18425;SDS011;9340;48.756;9.226;2023-05-29T00:21:12;6.30;;;5.23;;
18425;SDS011;9340;48.756;9.226;2023-05-29T00:23:39;8.73;;;6.37;;
18425;SDS011;9340;48.756;9.226;2023-05-29T00:26:06;7.30;;;5.90;;
18425;SDS011;9340;48.756;9.226;2023-05-29T00:28:33;6.13;;;5.40;;
18425;SDS011;9340;48.756;9.226;2023-05-29T00:31:01;5.70;;;5.20;;
18425;SDS011;9340;48.756;9.226;2023-05-29T00:33:28;7.20;;;5.90;;
18425;SDS011;9340;48.756;9.226;2023-05-29T00:35:54;7.87;;;7.03;;
18425;SDS011;9340;48.756;9.226;2023-05-29T00:38:22;13.07;;;8.03;;
18425;SDS011;9340;48.756;9.226;2023-05-29T00:40:49;8.50;;;6.20;;
18425;SDS011;9340;48.756;9.226;2023-05-29T00:43:16;6.00;;;5.40;;
18425;SDS011;9340;48.756;9.226;2023-05-29T00:45:42;7.80;;;5.50;;
18425;SDS011;9340;48.756;9.226;2023-05-29T00:48:09;5.63;;;5.13;;
18425;SDS011;9340;48.756;9.226;2023-05-29T00:50:36;7.37;;;5.47;;
18425;SDS011;9340;48.756;9.226;2023-05-29T00:53:03;6.47;;;5.30;;
18425;SDS011;9340;48.756;9.226;2023-05-29T00:55:34;7.13;;;5.43;;
18425;SDS011;9340;48.756;9.226;2023-05-29T00:58:01;6.70;;;6.10;;
18425;SDS011;9340;48.756;9.226;2023-05-29T01:00:27;13.07;;;10.53;;
18425;SDS011;9340;48.756;9.226;2023-05-29T01:02:58;6.83;;;5.70;;
18425;SDS011;9340;48.756;9.226;2023-05-29T01:05:27;7.57;;;6.10;;
18425;SDS011;9340;48.756;9.226;2023-05-29T01:07:55;7.03;;;6.10;;
18425;SDS011;9340;48.756;9.226;2023-05-29T01:10:22;7.17;;;5.70;;
18425;SDS011;9340;48.756;9.226;2023-05-29T01:12:51;6.30;;;5.70;;
18425;SDS011;9340;48.756;9.226;2023-05-29T01:15:24;6.70;;;6.07;;
18425;SDS011;9340;48.756;9.226;2023-05-29T01:18:07;6.33;;;5.70;;
18425;SDS011;9340;48.756;9.226;2023-05-29T01:20:44;6.67;;;5.47;;
18425;SDS011;9340;48.756;9.226;2023-05-29T01:23:26;7.10;;;5.80;;
18425;SDS011;9340;48.756;9.226;2023-05-29T01:29:32;6.50;;;5.70;;
18425;SDS011;9340;48.756;9.226;2023-05-29T01:32:00;6.43;;;5.83;;
18425;SDS011;9340;48.756;9.226;2023-05-29T01:34:28;8.57;;;6.17;;
18425;SDS011;9340;48.756;9.226;2023-05-29T01:36:55;6.27;;;5.67;;
18425;SDS011;9340;48.756;9.226;2023-05-29T01:39:21;7.50;;;6.63;;
18425;SDS011;9340;48.756;9.226;2023-05-29T01:41:48;7.47;;;6.30;;
18425;SDS011;9340;48.756;9.226;2023-05-29T01:44:16;6.77;;;5.90;;
18425;SDS011;9340;48.756;9.226;2023-05-29T01:46:45;7.10;;;5.93;;
18425;SDS011;9340;48.756;9.226;2023-05-29T01:49:12;7.03;;;6.30;;
18425;SDS011;9340;48.756;9.226;2023-05-29T01:51:40;8.30;;;6.43;;
18425;SDS011;9340;48.756;9.226;2023-05-29T01:54:08;6.93;;;5.87;;
18425;SDS011;9340;48.756;9.226;2023-05-29T01:56:34;8.47;;;6.40;;
18425;SDS011;9340;48.756;9.226;2023-05-29T01:59:03;7.20;;;6.50;;
18425;SDS011;9340;48.756;9.226;2023-05-29T02:01:30;7.33;;;5.90;;
18425;SDS011;9340;48.756;9.226;2023-05-29T02:03:59;7.47;;;6.33;;
18425;SDS011;9340;48.756;9.226;2023-05-29T02:06:25;7.83;;;6.47;;
18425;SDS011;9340;48.756;9.226;2023-05-29T02:08:52;8.27;;;5.60;;
18425;SDS011;9340;48.756;9.226;2023-05-29T02:11:19;7.00;;;5.83;;
18425;SDS011;9340;48.756;9.226;2023-05-29T02:13:46;7.07;;;5.97;;
18425;SDS011;9340;48.756;9.226;2023-05-29T02:16:13;8.23;;;6.23;;
18425;SDS011;9340;48.756;9.226;2023-05-29T02:18:40;7.33;;;5.97;;
18425;SDS011;9340;48.756;9.226;2023-05-29T02:21:08;6.90;;;5.67;;
18425;SDS011;9340;48.756;9.226;2023-05-29T02:23:35;7.30;;;6.13;;
18425;SDS011;9340;48.756;9.226;2023-05-29T02:26:01;7.73;;;6.90;;
18425;SDS011;9340;48.756;9.226;2023-05-29T02:28:28;6.67;;;5.77;;
18425;SDS011;9340;48.756;9.226;2023-05-29T02:30:54;7.80;;;6.53;;
18425;SDS011;9340;48.756;9.226;2023-05-29T02:33:21;7.13;;;6.43;;
18425;SDS011;9340;48.756;9.226;2023-05-29T02:35:48;6.77;;;5.60;;
18425;SDS011;9340;48.756;9.226;2023-05-29T02:38:16;7.60;;;6.00;;
18425;SDS011;9340;48.756;9.226;2023-05-29T02:40:42;6.90;;;6.20;;
18425;SDS011;9340;48.756;9.226;2023-05-29T02:43:11;7.67;;;6.57;;
18425;SDS011;9340;48.756;9.226;2023-05-29T02:45:39;8.40;;;6.37;;
18425;SDS011;9340;48.756;9.226;2023-05-29T02:48:06;8.00;;;5.97;;
18425;SDS011;9340;48.756;9.226;2023-05-29T02:50:32;7.10;;;6.00;;
18425;SDS011;9340;48.756;9.226;2023-05-29T02:52:59;10.87;;;6.37;;
18425;SDS011;9340;48.756;9.226;2023-05-29T02:55:27;7.70;;;6.13;;
18425;SDS011;9340;48.756;9.226;2023-05-29T02:57:53;7.43;;;6.27;;
18425;SDS011;9340;48.756;9.226;2023-05-29T03:00:21;7.40;;;6.60;;
18425;SDS011;9340;48.756;9.226;2023-05-29T03:02:47;7.30;;;5.57;;
18425;SDS011;9340;48.756;9.226;2023-05-29T03:05:15;7.60;;;6.80;;
18425;SDS011;9340;48.756;9.226;2023-05-29T03:07:42;10.70;;;6.73;;
18425;SDS011;9340;48.756;9.226;2023-05-29T03:10:09;7.70;;;6.43;;
18425;SDS011;9340;48.756;9.226;2023-05-29T03:12:37;8.23;;;6.60;;
18425;SDS011;9340;48.756;9.226;2023-05-29T03:15:06;7.43;;;6.43;;
18425;SDS011;9340;48.756;9.226;2023-05-29T03:17:33;6.97;;;6.27;;
18425;SDS011;9340;48.756;9.226;2023-05-29T03:20:01;9.23;;;6.57;;
18425;SDS011;9340;48.756;9.226;2023-05-29T03:22:30;7.23;;;6.50;;
18425;SDS011;9340;48.756;9.226;2023-05-29T03:24:57;7.60;;;5.83;;
18425;SDS011;9340;48.756;9.226;2023-05-29T03:27:24;8.97;;;6.40;;
18425;SDS011;9340;48.756;9.226;2023-05-29T03:29:52;7.30;;;6.60;;
18425;SDS011;9340;48.756;9.226;2023-05-29T03:32:19;8.20;;;5.77;;
18425;SDS011;9340;48.756;9.226;2023-05-29T03:34:46;8.20;;;6.43;;
18425;SDS011;9340;48.756;9.226;2023-05-29T03:37:13;8.03;;;5.90;;
18425;SDS011;9340;48.756;9.226;2023-05-29T03:39:39;9.37;;;7.57;;
18425;SDS011;9340;48.756;9.226;2023-05-29T03:42:06;8.03;;;6.10;;
18425;SDS011;9340;48.756;9.226;2023-05-29T03:44:33;6.97;;;6.27;;
18425;SDS011;9340;48.756;9.226;2023-05-29T03:47:01;8.87;;;7.07;;
18425;SDS011;9340;48.756;9.226;2023-05-29T03:49:27;7.40;;;5.97;;
18425;SDS011;9340;48.756;9.226;2023-05-29T03:51:54;7.97;;;6.17;;
18425;SDS011;9340;48.756;9.226;2023-05-29T03:54:21;8.03;;;6.47;;
18425;SDS011;9340;48.756;9.226;2023-05-29T03:56:47;8.50;;;6.70;;
18425;SDS011;9340;48.756;9.226;2023-05-29T03:59:14;9.20;;;6.53;;
18425;SDS011;9340;48.756;9.226;2023-05-29T04:01:40;6.97;;;6.20;;
18425;SDS011;9340;48.756;9.226;2023-05-29T04:04:08;6.53;;;5.93;;
18425;SDS011;9340;48.756;9.226;2023-05-29T04:06:35;6.83;;;6.10;;
18425;SDS011;9340;48.756;9.226;2023-05-29T04:09:03;7.43;;;6.17;;
18425;SDS011;9340;48.756;9.226;2023-05-29T04:11:31;6.77;;;6.07;;
18425;SDS011;9340;48.756;9.226;2023-05-29T04:13:59;9.97;;;6.30;;
18425;SDS011;9340;48.756;9.226;2023-05-29T04:16:26;6.80;;;6.20;;
18425;SDS011;9340;48.756;9.226;2023-05-29T04:18:53;6.67;;;5.97;;
18425;SDS011;9340;48.756;9.226;2023-05-29T04:21:21;6.77;;;5.83;;
18425;SDS011;9340;48.756;9.226;2023-05-29T04:23:47;11.70;;;5.93;;
18425;SDS011;9340;48.756;9.226;2023-05-29T04:26:14;6.93;;;6.23;;
18425;SDS011;9340;48.756;9.226;2023-05-29T04:28:41;7.53;;;5.70;;
18425;SDS011;9340;48.756;9.226;2023-05-29T04:31:08;7.90;;;5.90;;
18425;SDS011;9340;48.756;9.226;2023-05-29T04:33:39;7.73;;;5.87;;
18425;SDS011;9340;48.756;9.226;2023-05-29T04:36:06;6.13;;;5.53;;
18425;SDS011;9340;48.756;9.226;2023-05-29T04:38:35;7.90;;;5.20;;
18425;SDS011;9340;48.756;9.226;2023-05-29T04:41:02;6.20;;;5.60;;
18425;SDS011;9340;48.756;9.226;2023-05-29T04:43:28;6.67;;;5.57;;
18425;SDS011;9340;48.756;9.226;2023-05-29T04:45:55;7.67;;;6.27;;
18425;SDS011;9340;48.756;9.226;2023-05-29T04:48:23;6.87;;;5.30;;
18425;SDS011;9340;48.756;9.226;2023-05-29T04:50:50;7.73;;;5.57;;
18425;SDS011;9340;48.756;9.226;2023-05-29T04:53:16;6.60;;;5.80;;
18425;SDS011;9340;48.756;9.226;2023-05-29T04:55:44;7.63;;;5.90;;
18425;SDS011;9340;48.756;9.226;2023-05-29T04:58:11;8.03;;;5.77;;
18425;SDS011;9340;48.756;9.226;2023-05-29T05:00:38;5.83;;;5.23;;
18425;SDS011;9340;48.756;9.226;2023-05-29T05:03:05;9.00;;;6.13;;
18425;SDS011;9340;48.756;9.226;2023-05-29T05:05:32;7.23;;;5.63;;
18425;SDS011;9340;48.756;9.226;2023-05-29T05:07:59;8.07;;;5.87;;
18425;SDS011;9340;48.756;9.226;2023-05-29T05:10:25;7.57;;;6.00;;
18425;SDS011;9340;48.756;9.226;2023-05-29T05:12:53;8.53;;;5.93;;
18425;SDS011;9340;48.756;9.226;2023-05-29T05:15:20;7.27;;;5.90;;
18425;SDS011;9340;48.756;9.226;2023-05-29T05:17:46;6.43;;;5.83;;
18425;SDS011;9340;48.756;9.226;2023-05-29T05:20:13;6.70;;;6.00;;
18425;SDS011;9340;48.756;9.226;2023-05-29T05:22:40;6.80;;;5.70;;
18425;SDS011;9340;48.756;9.226;2023-05-29T05:25:07;7.57;;;5.33;;
18425;SDS011;9340;48.756;9.226;2023-05-29T05:27:34;5.47;;;4.97;;
18425;SDS011;9340;48.756;9.226;2023-05-29T05:30:02;6.97;;;5.83;;
18425;SDS011;9340;48.756;9.226;2023-05-29T05:32:29;6.18;;;5.57;;
18425;SDS011;9340;48.756;9.226;2023-05-29T05:34:55;6.53;;;5.75;;
18425;SDS011;9340;48.756;9.226;2023-05-29T05:37:22;5.65;;;5.15;;
18425;SDS011;9340;48.756;9.226;2023-05-29T05:39:49;5.80;;;5.30;;
18425;SDS011;9340;48.756;9.226;2023-05-29T05:42:18;6.63;;;5.60;;
18425;SDS011;9340;48.756;9.226;2023-05-29T05:44:44;7.95;;;5.80;;
18425;SDS011;9340;48.756;9.226;2023-05-29T05:47:12;7.28;;;6.07;;
18425;SDS011;9340;48.756;9.226;2023-05-29T05:49:39;7.28;;;6.55;;
18425;SDS011;9340;48.756;9.226;2023-05-29T05:52:06;8.38;;;5.72;;
18425;SDS011;9340;48.756;9.226;2023-05-29T05:54:33;6.18;;;5.57;;
18425;SDS011;9340;48.756;9.226;2023-05-29T05:56:59;6.30;;;5.70;;
18425;SDS011;9340;48.756;9.226;2023-05-29T05:59:28;6.78;;;6.07;;
18425;SDS011;9340;48.756;9.226;2023-05-29T06:01:54;6.90;;;6.20;;
18425;SDS011;9340;48.756;9.226;2023-05-29T06:04:22;6.75;;;5.93;;
18425;SDS011;9340;48.756;9.226;2023-05-29T06:06:49;6.40;;;5.80;;
18425;SDS011;9340;48.756;9.226;2023-05-29T06:09:16;8.40;;;5.90;;
18425;SDS011;9340;48.756;9.226;2023-05-29T06:11:42;6.53;;;5.97;;
18425;SDS011;9340;48.756;9.226;2023-05-29T06:14:10;7.47;;;6.13;;
18425;SDS011;9340;48.756;9.226;2023-05-29T06:16:36;6.85;;;6.28;;
18425;SDS011;9340;48.756;9.226;2023-05-29T06:19:03;7.35;;;6.65;;
18425;SDS011;9340;48.756;9.226;2023-05-29T06:21:31;6.80;;;6.20;;
18425;SDS011;9340;48.756;9.226;2023-05-29T06:23:58;8.35;;;6.90;;
18425;SDS011;9340;48.756;9.226;2023-05-29T06:26:24;6.65;;;5.95;;
18425;SDS011;9340;48.756;9.226;2023-05-29T06:28:51;6.72;;;5.68;;
18425;SDS011;9340;48.756;9.226;2023-05-29T06:31:18;6.22;;;5.63;;
18425;SDS011;9340;48.756;9.226;2023-05-29T06:33:45;8.07;;;6.40;;
18425;SDS011;9340;48.756;9.226;2023-05-29T06:36:12;6.97;;;6.00;;
18425;SDS011;9340;48.756;9.226;2023-05-29T06:38:40;6.03;;;5.43;;
18425;SDS011;9340;48.756;9.226;2023-05-29T06:41:11;7.18;;;5.97;;
18425;SDS011;9340;48.756;9.226;2023-05-29T06:43:38;7.25;;;5.72;;
18425;SDS011;9340;48.756;9.226;2023-05-29T06:46:04;6.57;;;5.95;;
18425;SDS011;9340;48.756;9.226;2023-05-29T06:48:32;8.13;;;6.60;;
18425;SDS011;9340;48.756;9.226;2023-05-29T06:50:59;7.32;;;6.63;;
18425;SDS011;9340;48.756;9.226;2023-05-29T06:53:25;7.25;;;6.55;;
18425;SDS011;9340;48.756;9.226;2023-05-29T06:55:53;6.90;;;6.18;;
18425;SDS011;9340;48.756;9.226;2023-05-29T06:58:20;6.88;;;6.03;;
18425;SDS011;9340;48.756;9.226;2023-05-29T07:00:46;7.38;;;6.22;;
18425;SDS011;9340;48.756;9.226;2023-05-29T07:03:13;8.43;;;6.22;;
18425;SDS011;9340;48.756;9.226;2023-05-29T07:05:40;7.50;;;6.72;;
18425;SDS011;9340;48.756;9.226;2023-05-29T07:08:07;7.30;;;5.68;;
18425;SDS011;9340;48.756;9.226;2023-05-29T07:10:34;8.55;;;6.40;;
18425;SDS011;9340;48.756;9.226;2023-05-29T07:13:02;6.55;;;5.93;;
18425;SDS011;9340;48.756;9.226;2023-05-29T07:15:29;6.07;;;5.00;;
18425;SDS011;9340;48.756;9.226;2023-05-29T07:17:56;7.43;;;5.55;;
18425;SDS011;9340;48.756;9.226;2023-05-29T07:20:23;6.70;;;5.72;;
18425;SDS011;9340;48.756;9.226;2023-05-29T07:22:49;7.45;;;6.60;;
18425;SDS011;9340;48.756;9.226;2023-05-29T07:25:16;6.07;;;5.57;;
18425;SDS011;9340;48.756;9.226;2023-05-29T07:27:42;5.82;;;5.22;;
18425;SDS011;9340;48.756;9.226;2023-05-29T07:30:11;6.75;;;5.60;;
18425;SDS011;9340;48.756;9.226;2023-05-29T07:32:38;8.75;;;5.97;;
18425;SDS011;9340;48.756;9.226;2023-05-29T07:35:05;7.38;;;6.05;;
18425;SDS011;9340;48.756;9.226;2023-05-29T07:37:33;7.43;;;6.35;;
18425;SDS011;9340;48.756;9.226;2023-05-29T07:40:00;6.50;;;5.72;;
18425;SDS011;9340;48.756;9.226;2023-05-29T07:42:28;6.65;;;6.00;;
18425;SDS011;9340;48.756;9.226;2023-05-29T07:44:54;6.90;;;6.18;;
18425;SDS011;9340;48.756;9.226;2023-05-29T07:47:22;6.40;;;5.65;;
18425;SDS011;9340;48.756;9.226;2023-05-29T07:49:49;6.70;;;5.85;;
18425;SDS011;9340;48.756;9.226;2023-05-29T07:52:17;6.90;;;6.18;;
18425;SDS011;9340;48.756;9.226;2023-05-29T07:54:43;6.55;;;5.90;;
18425;SDS011;9340;48.756;9.226;2023-05-29T07:57:10;6.55;;;5.80;;
18425;SDS011;9340;48.756;9.226;2023-05-29T07:59:37;5.43;;;4.93;;
18425;SDS011;9340;48.756;9.226;2023-05-29T08:02:06;8.07;;;5.75;;
18425;SDS011;9340;48.756;9.226;2023-05-29T08:04:34;8.75;;;5.70;;
18425;SDS011;9340;48.756;9.226;2023-05-29T08:07:02;7.10;;;6.40;;
18425;SDS011;9340;48.756;9.226;2023-05-29T08:09:29;6.70;;;5.97;;
18425;SDS011;9340;48.756;9.226;2023-05-29T08:11:56;5.97;;;5.30;;
18425;SDS011;9340;48.756;9.226;2023-05-29T08:14:24;7.65;;;6.20;;
18425;SDS011;9340;48.756;9.226;2023-05-29T08:16:51;6.90;;;5.68;;
18425;SDS011;9340;48.756;9.226;2023-05-29T08:19:18;6.45;;;5.85;;
18425;SDS011;9340;48.756;9.226;2023-05-29T08:21:46;7.10;;;6.40;;
18425;SDS011;9340;48.756;9.226;2023-05-29T08:24:12;7.32;;;6.63;;
18425;SDS011;9340;48.756;9.226;2023-05-29T08:26:39;7.13;;;6.13;;
18425;SDS011;9340;48.756;9.226;2023-05-29T08:29:08;6.50;;;5.90;;
18425;SDS011;9340;48.756;9.226;2023-05-29T08:31:35;7.68;;;6.85;;
18425;SDS011;9340;48.756;9.226;2023-05-29T08:34:02;8.05;;;6.05;;
18425;SDS011;9340;48.756;9.226;2023-05-29T08:36:29;7.32;;;5.85;;
18425;SDS011;9340;48.756;9.226;2023-05-29T08:38:57;6.60;;;5.82;;
18425;SDS011;9340;48.756;9.226;2023-05-29T08:41:26;6.22;;;5.63;;
18425;SDS011;9340;48.756;9.226;2023-05-29T08:43:55;6.57;;;5.97;;
18425;SDS011;9340;48.756;9.226;2023-05-29T08:46:24;7.50;;;6.15;;
18425;SDS011;9340;48.756;9.226;2023-05-29T08:48:51;8.68;;;6.75;;
18425;SDS011;9340;48.756;9.226;2023-05-29T08:51:22;6.47;;;5.88;;
18425;SDS011;9340;48.756;9.226;2023-05-29T08:53:57;6.85;;;6.15;;
18425;SDS011;9340;48.756;9.226;2023-05-29T08:56:24;6.30;;;5.70;;
18425;SDS011;9340;48.756;9.226;2023-05-29T08:58:51;6.93;;;5.60;;
18425;SDS011;9340;48.756;9.226;2023-05-29T09:01:19;8.05;;;5.75;;
18425;SDS011;9340;48.756;9.226;2023-05-29T09:03:47;8.00;;;6.57;;
18425;SDS011;9340;48.756;9.226;2023-05-29T09:06:14;6.93;;;6.22;;
18425;SDS011;9340;48.756;9.226;2023-05-29T09:08:43;7.93;;;6.03;;
18425;SDS011;9340;48.756;9.226;2023-05-29T09:11:11;7.90;;;6.22;;
18425;SDS011;9340;48.756;9.226;2023-05-29T09:13:37;6.80;;;6.05;;
18425;SDS011;9340;48.756;9.226;2023-05-29T09:16:04;7.90;;;6.93;;
18425;SDS011;9340;48.756;9.226;2023-05-29T09:18:32;6.82;;;5.82;;
18425;SDS011;9340;48.756;9.226;2023-05-29T09:20:58;6.40;;;5.75;;
18425;SDS011;9340;48.756;9.226;2023-05-29T09:23:25;7.07;;;6.43;;
18425;SDS011;9340;48.756;9.226;2023-05-29T09:25:53;6.28;;;5.53;;
18425;SDS011;9340;48.756;9.226;2023-05-29T09:28:21;6.93;;;6.22;;
18425;SDS011;9340;48.756;9.226;2023-05-29T09:30:50;7.30;;;6.07;;
18425;SDS011;9340;48.756;9.226;2023-05-29T09:33:17;6.93;;;6.30;;
18425;SDS011;9340;48.756;9.226;2023-05-29T09:35:45;6.78;;;6.07;;
18425;SDS011;9340;48.756;9.226;2023-05-29T09:38:13;6.25;;;5.50;;
18425;SDS011;9340;48.756;9.226;2023-05-29T09:40:41;6.03;;;5.45;;
18425;SDS011;9340;48.756;9.226;2023-05-29T09:43:11;8.25;;;6.10;;
18425;SDS011;9340;48.756;9.226;2023-05-29T09:45:41;7.35;;;6.30;;
18425;SDS011;9340;48.756;9.226;2023-05-29T09:48:12;6.80;;;5.97;;
18425;SDS011;9340;48.756;9.226;2023-05-29T09:50:39;6.32;;;5.47;;
18425;SDS011;9340;48.756;9.226;2023-05-29T09:53:15;6.22;;;5.63;;
18425;SDS011;9340;48.756;9.226;2023-05-29T09:55:44;5.85;;;5.35;;
18425;SDS011;9340;48.756;9.226;2023-05-29T09:58:11;5.82;;;5.22;;
18425;SDS011;9340;48.756;9.226;2023-05-29T10:00:41;5.65;;;5.15;;
18425;SDS011;9340;48.756;9.226;2023-05-29T10:03:08;6.05;;;5.55;;
18425;SDS011;9340;48.756;9.226;2023-05-29T10:05:35;6.50;;;5.90;;
18425;SDS011;9340;48.756;9.226;2023-05-29T10:08:03;7.20;;;5.53;;
18425;SDS011;9340;48.756;9.226;2023-05-29T10:10:34;6.20;;;5.60;;
18425;SDS011;9340;48.756;9.226;2023-05-29T10:13:02;6.00;;;5.38;;
18425;SDS011;9340;48.756;9.226;2023-05-29T10:15:30;5.80;;;5.30;;
18425;SDS011;9340;48.756;9.226;2023-05-29T10:18:02;6.13;;;5.53;;
18425;SDS011;9340;48.756;9.226;2023-05-29T10:20:30;6.50;;;5.90;;
18425;SDS011;9340;48.756;9.226;2023-05-29T10:22:59;6.10;;;5.50;;
18425;SDS011;9340;48.756;9.226;2023-05-29T10:25:28;6.03;;;5.35;;
18425;SDS011;9340;48.756;9.226;2023-05-29T10:27:57;6.00;;;5.40;;
18425;SDS011;9340;48.756;9.226;2023-05-29T10:30:26;6.80;;;6.13;;
18425;SDS011;9340;48.756;9.226;2023-05-29T10:33:07;6.82;;;5.72;;
18425;SDS011;9340;48.756;9.226;2023-05-29T10:35:53;6.18;;;5.68;;
18425;SDS011;9340;48.756;9.226;2023-05-29T10:38:26;6.82;;;5.45;;
18425;SDS011;9340;48.756;9.226;2023-05-29T10:40:53;6.07;;;5.47;;
18425;SDS011;9340;48.756;9.226;2023-05-29T10:43:29;7.40;;;5.72;;
18425;SDS011;9340;48.756;9.226;2023-05-29T10:45:57;5.93;;;5.40;;
18425;SDS011;9340;48.756;9.226;2023-05-29T10:48:38;6.45;;;5.25;;
18425;SDS011;9340;48.756;9.226;2023-05-29T10:51:06;5.45;;;4.95;;
18425;SDS011;9340;48.756;9.226;2023-05-29T10:53:34;5.85;;;5.00;;
18425;SDS011;9340;48.756;9.226;2023-05-29T10:56:07;5.75;;;5.15;;
18425;SDS011;9340;48.756;9.226;2023-05-29T10:58:40;5.68;;;5.18;;
18425;SDS011;9340;48.756;9.226;2023-05-29T11:01:07;5.75;;;5.25;;
18425;SDS011;9340;48.756;9.226;2023-05-29T11:03:35;5.40;;;4.90;;
18425;SDS011;9340;48.756;9.226;2023-05-29T11:06:03;6.00;;;4.93;;
18425;SDS011;9340;48.756;9.226;2023-05-29T11:08:33;4.90;;;4.50;;
18425;SDS011;9340;48.756;9.226;2023-05-29T11:11:01;5.40;;;4.75;;
18425;SDS011;9340;48.756;9.226;2023-05-29T11:13:32;8.10;;;5.82;;
18425;SDS011;9340;48.756;9.226;2023-05-29T11:16:05;8.73;;;5.50;;
18425;SDS011;9340;48.756;9.226;2023-05-29T11:18:40;5.47;;;4.75;;
18425;SDS011;9340;48.756;9.226;2023-05-29T11:21:15;5.72;;;5.22;;
18425;SDS011;9340;48.756;9.226;2023-05-29T11:23:50;7.07;;;5.63;;
18425;SDS011;9340;48.756;9.226;2023-05-29T11:26:17;8.13;;;5.38;;
18425;SDS011;9340;48.756;9.226;2023-05-29T11:28:45;7.22;;;5.95;;
18425;SDS011;9340;48.756;9.226;2023-05-29T11:31:12;6.90;;;4.95;;
18425;SDS011;9340;48.756;9.226;2023-05-29T11:33:41;4.80;;;4.40;;
18425;SDS011;9340;48.756;9.226;2023-05-29T11:36:15;6.28;;;5.57;;
18425;SDS011;9340;48.756;9.226;2023-05-29T11:38:41;6.32;;;4.60;;
18425;SDS011;9340;48.756;9.226;2023-05-29T11:41:08;5.25;;;4.75;;
18425;SDS011;9340;48.756;9.226;2023-05-29T11:43:35;4.57;;;4.07;;
18425;SDS011;9340;48.756;9.226;2023-05-29T11:46:02;5.32;;;4.70;;
18425;SDS011;9340;48.756;9.226;2023-05-29T11:48:44;5.25;;;4.75;;
18425;SDS011;9340;48.756;9.226;2023-05-29T11:51:11;5.45;;;4.30;;
18425;SDS011;9340;48.756;9.226;2023-05-29T11:53:41;5.15;;;4.65;;
18425;SDS011;9340;48.756;9.226;2023-05-29T11:56:08;5.72;;;4.43;;
18425;SDS011;9340;48.756;9.226;2023-05-29T11:58:36;5.32;;;4.82;;
18425;SDS011;9340;48.756;9.226;2023-05-29T12:01:03;5.03;;;4.53;;
18425;SDS011;9340;48.756;9.226;2023-05-29T12:03:31;4.60;;;4.20;;
18425;SDS011;9340;48.756;9.226;2023-05-29T12:06:03;4.93;;;4.50;;
18425;SDS011;9340;48.756;9.226;2023-05-29T12:08:31;5.68;;;4.55;;
18425;SDS011;9340;48.756;9.226;2023-05-29T12:10:59;4.88;;;4.47;;
18425;SDS011;9340;48.756;9.226;2023-05-29T12:13:26;5.15;;;4.47;;
18425;SDS011;9340;48.756;9.226;2023-05-29T12:15:54;5.50;;;4.72;;
18425;SDS011;9340;48.756;9.226;2023-05-29T12:18:23;4.78;;;4.38;;
18425;SDS011;9340;48.756;9.226;2023-05-29T12:20:50;5.78;;;4.47;;
18425;SDS011;9340;48.756;9.226;2023-05-29T12:23:17;5.68;;;4.88;;
18425;SDS011;9340;48.756;9.226;2023-05-29T12:25:45;6.53;;;3.90;;
18425;SDS011;9340;48.756;9.226;2023-05-29T12:28:16;6.38;;;4.60;;
18425;SDS011;9340;48.756;9.226;2023-05-29T12:30:44;5.05;;;4.55;;
18425;SDS011;9340;48.756;9.226;2023-05-29T12:33:24;4.78;;;4.38;;
18425;SDS011;9340;48.756;9.226;2023-05-29T12:35:52;4.07;;;3.67;;
18425;SDS011;9340;48.756;9.226;2023-05-29T12:38:19;5.03;;;4.55;;
18425;SDS011;9340;48.756;9.226;2023-05-29T12:40:47;4.28;;;3.85;;
18425;SDS011;9340;48.756;9.226;2023-05-29T12:43:15;4.75;;;4.35;;
18425;SDS011;9340;48.756;9.226;2023-05-29T12:45:44;4.97;;;4.15;;
18425;SDS011;9340;48.756;9.226;2023-05-29T12:48:10;4.43;;;4.13;;
18425;SDS011;9340;48.756;9.226;2023-05-29T12:50:37;5.00;;;4.50;;
18425;SDS011;9340;48.756;9.226;2023-05-29T12:53:05;4.80;;;4.28;;
18425;SDS011;9340;48.756;9.226;2023-05-29T12:55:33;6.07;;;4.47;;
18425;SDS011;9340;48.756;9.226;2023-05-29T12:58:03;5.47;;;4.53;;
18425;SDS011;9340;48.756;9.226;2023-05-29T13:00:33;5.60;;;4.72;;
18425;SDS011;9340;48.756;9.226;2023-05-29T13:02:59;4.40;;;4.00;;
18425;SDS011;9340;48.756;9.226;2023-05-29T13:05:27;4.50;;;4.10;;
18425;SDS011;9340;48.756;9.226;2023-05-29T13:07:53;5.10;;;4.53;;
18425;SDS011;9340;48.756;9.226;2023-05-29T13:10:20;5.00;;;4.50;;
18425;SDS011;9340;48.756;9.226;2023-05-29T13:12:48;5.38;;;4.88;;
18425;SDS011;9340;48.756;9.226;2023-05-29T13:15:18;6.30;;;4.57;;
18425;SDS011;9340;48.756;9.226;2023-05-29T13:17:47;4.97;;;4.57;;
18425;SDS011;9340;48.756;9.226;2023-05-29T13:20:13;5.00;;;4.60;;
18425;SDS011;9340;48.756;9.226;2023-05-29T13:22:41;5.38;;;4.75;;
18425;SDS011;9340;48.756;9.226;2023-05-29T13:25:10;4.97;;;4.57;;
18425;SDS011;9340;48.756;9.226;2023-05-29T13:27:38;4.80;;;4.32;;
18425;SDS011;9340;48.756;9.226;2023-05-29T13:30:07;6.35;;;4.30;;
18425;SDS011;9340;48.756;9.226;2023-05-29T13:32:34;6.50;;;4.68;;
18425;SDS011;9340;48.756;9.226;2023-05-29T13:35:03;5.43;;;4.55;;
18425;SDS011;9340;48.756;9.226;2023-05-29T13:37:31;5.47;;;4.57;;
18425;SDS011;9340;48.756;9.226;2023-05-29T13:39:58;4.00;;;3.70;;
18425;SDS011;9340;48.756;9.226;2023-05-29T13:42:25;4.97;;;4.35;;
18425;SDS011;9340;48.756;9.226;2023-05-29T13:44:52;5.75;;;4.43;;
18425;SDS011;9340;48.756;9.226;2023-05-29T13:47:19;5.05;;;4.63;;
18425;SDS011;9340;48.756;9.226;2023-05-29T13:49:45;5.80;;;4.60;;
18425;SDS011;9340;48.756;9.226;2023-05-29T13:52:13;5.03;;;4.53;;
18425;SDS011;9340;48.756;9.226;2023-05-29T13:54:41;5.47;;;4.55;;
18425;SDS011;9340;48.756;9.226;2023-05-29T13:57:08;5.20;;;4.80;;
18425;SDS011;9340;48.756;9.226;2023-05-29T13:59:34;4.90;;;4.50;;
18425;SDS011;9340;48.756;9.226;2023-05-29T14:02:01;5.43;;;4.93;;
18425;SDS011;9340;48.756;9.226;2023-05-29T14:04:29;5.78;;;4.47;;
18425;SDS011;9340;48.756;9.226;2023-05-29T14:06:56;5.47;;;4.97;;
18425;SDS011;9340;48.756;9.226;2023-05-29T14:09:24;6.30;;;5.78;;
18425;SDS011;9340;48.756;9.226;2023-05-29T14:11:53;5.30;;;4.80;;
18425;SDS011;9340;48.756;9.226;2023-05-29T14:14:20;5.20;;;4.80;;
18425;SDS011;9340;48.756;9.226;2023-05-29T14:16:47;5.03;;;4.55;;
18425;SDS011;9340;48.756;9.226;2023-05-29T14:19:14;6.78;;;4.75;;
18425;SDS011;9340;48.756;9.226;2023-05-29T14:21:41;5.32;;;4.78;;
18425;SDS011;9340;48.756;9.226;2023-05-29T14:24:08;9.18;;;5.15;;
18425;SDS011;9340;48.756;9.226;2023-05-29T14:26:36;5.35;;;4.85;;
18425;SDS011;9340;48.756;9.226;2023-05-29T14:29:02;6.15;;;4.60;;
18425;SDS011;9340;48.756;9.226;2023-05-29T14:31:30;4.68;;;3.90;;
18425;SDS011;9340;48.756;9.226;2023-05-29T14:33:56;6.05;;;4.90;;
18425;SDS011;9340;48.756;9.226;2023-05-29T14:36:23;5.03;;;4.57;;
18425;SDS011;9340;48.756;9.226;2023-05-29T14:38:50;4.90;;;4.50;;
18425;SDS011;9340;48.756;9.226;2023-05-29T14:41:16;5.13;;;4.40;;
18425;SDS011;9340;48.756;9.226;2023-05-29T14:43:44;4.65;;;4.25;;
18425;SDS011;9340;48.756;9.226;2023-05-29T14:46:11;4.50;;;4.10;;
18425;SDS011;9340;48.756;9.226;2023-05-29T14:48:38;5.43;;;4.32;;
18425;SDS011;9340;48.756;9.226;2023-05-29T14:51:05;7.38;;;4.70;;
18425;SDS011;9340;48.756;9.226;2023-05-29T14:53:32;5.13;;;4.72;;
18425;SDS011;9340;48.756;9.226;2023-05-29T14:55:58;5.40;;;4.72;;
18425;SDS011;9340;48.756;9.226;2023-05-29T14:58:25;5.13;;;4.22;;
18425;SDS011;9340;48.756;9.226;2023-05-29T15:00:53;5.00;;;4.55;;
18425;SDS011;9340;48.756;9.226;2023-05-29T15:03:20;5.30;;;4.82;;
18425;SDS011;9340;48.756;9.226;2023-05-29T15:05:51;5.05;;;4.55;;
18425;SDS011;9340;48.756;9.226;2023-05-29T15:08:18;5.20;;;4.57;;